createdAt,value
2017-04-29T00:00:54.172Z,1010.22
2017-04-29T00:01:54.146Z,1010.17
2017-04-29T00:02:54.123Z,1010.19
2017-04-29T00:03:54.098Z,1010.17
2017-04-29T00:04:54.075Z,1010.17
2017-04-29T00:05:54.051Z,1010.18
2017-04-29T00:06:54.026Z,1010.19
2017-04-29T00:07:54.005Z,1010.17
2017-04-29T00:08:53.978Z,1010.17
2017-04-29T00:09:53.956Z,1010.15
2017-04-29T00:10:53.929Z,1010.13
2017-04-29T00:11:53.906Z,1010.14
2017-04-29T00:12:53.884Z,1010.17
2017-04-29T00:13:53.858Z,1010.15
2017-04-29T00:14:53.833Z,1010.18
2017-04-29T00:15:53.805Z,1010.2
2017-04-29T00:16:53.785Z,1010.21
2017-04-29T00:17:53.759Z,1010.2
2017-04-29T00:18:53.736Z,1010.25
2017-04-29T00:19:53.711Z,1010.23
2017-04-29T00:20:53.693Z,1010.19
2017-04-29T00:21:53.662Z,1010.22
2017-04-29T00:22:53.643Z,1010.22
2017-04-29T00:23:53.615Z,1010.16
2017-04-29T00:24:53.594Z,1010.17
2017-04-29T00:25:53.567Z,1010.14
2017-04-29T00:26:53.543Z,1010.14
2017-04-29T00:27:53.517Z,1010.14
2017-04-29T00:28:53.497Z,1010.11
2017-04-29T00:29:53.473Z,1010.1
2017-04-29T00:30:53.445Z,1010.1
2017-04-29T00:31:53.422Z,1010.16
2017-04-29T00:32:53.397Z,1010.1
2017-04-29T00:33:53.376Z,1010.14
2017-04-29T00:34:53.349Z,1010.18
2017-04-29T00:35:53.323Z,1010.2
2017-04-29T00:36:53.298Z,1010.22
2017-04-29T00:37:53.275Z,1010.21
2017-04-29T00:38:53.250Z,1010.18
2017-04-29T00:39:53.224Z,1010.15
2017-04-29T00:40:53.204Z,1010.16
2017-04-29T00:41:53.176Z,1010.18
2017-04-29T00:42:53.152Z,1010.21
2017-04-29T00:43:53.127Z,1010.21
2017-04-29T00:44:53.105Z,1010.22
2017-04-29T00:45:53.080Z,1010.25
2017-04-29T00:46:53.058Z,1010.27
2017-04-29T00:47:53.031Z,1010.27
2017-04-29T00:48:53.003Z,1010.25
2017-04-29T00:49:52.982Z,1010.29
2017-04-29T00:50:52.956Z,1010.25
2017-04-29T00:51:52.934Z,1010.27
2017-04-29T00:52:52.909Z,1010.26
2017-04-29T00:53:52.884Z,1010.27
2017-04-29T00:54:52.858Z,1010.3
2017-04-29T00:55:52.835Z,1010.28
2017-04-29T00:56:52.809Z,1010.33
2017-04-29T00:57:52.785Z,1010.32
2017-04-29T00:58:52.761Z,1010.35
2017-04-29T00:59:52.736Z,1010.35
2017-04-29T01:00:52.712Z,1010.43
2017-04-29T01:01:52.687Z,1010.41
2017-04-29T01:02:52.660Z,1010.5
2017-04-29T01:03:52.637Z,1010.51
2017-04-29T01:04:52.612Z,1010.55
2017-04-29T01:05:52.588Z,1010.52
2017-04-29T01:06:52.565Z,1010.51
2017-04-29T01:07:52.539Z,1010.5
2017-04-29T01:08:52.515Z,1010.51
2017-04-29T01:09:52.490Z,1010.49
2017-04-29T01:10:52.516Z,1010.52
2017-04-29T01:11:52.438Z,1010.59
2017-04-29T01:12:52.418Z,1010.54
2017-04-29T01:13:52.395Z,1010.56
2017-04-29T01:14:52.367Z,1010.58
2017-04-29T01:15:52.341Z,1010.58
2017-04-29T01:16:52.319Z,1010.53
2017-04-29T01:17:52.296Z,1010.51
2017-04-29T01:18:52.276Z,1010.55
2017-04-29T01:19:52.247Z,1010.57
2017-04-29T01:20:52.222Z,1010.57
2017-04-29T01:21:52.195Z,1010.6
2017-04-29T01:22:52.172Z,1010.63
2017-04-29T01:23:52.146Z,1010.56
2017-04-29T01:24:52.124Z,1010.55
2017-04-29T01:25:52.096Z,1010.5
2017-04-29T01:26:52.075Z,1010.55
2017-04-29T01:27:52.050Z,1010.53
2017-04-29T01:28:52.024Z,1010.52
2017-04-29T01:29:52.001Z,1010.55
2017-04-29T01:30:51.977Z,1010.57
2017-04-29T01:31:51.951Z,1010.6
2017-04-29T01:32:51.928Z,1010.58
2017-04-29T01:33:51.902Z,1010.61
2017-04-29T01:34:51.927Z,1010.6
2017-04-29T01:35:51.855Z,1010.62
2017-04-29T01:36:51.830Z,1010.59
2017-04-29T01:37:51.812Z,1010.64
2017-04-29T01:38:51.781Z,1010.65
2017-04-29T01:39:51.753Z,1010.65
2017-04-29T01:40:51.732Z,1010.65
2017-04-29T01:41:51.706Z,1010.61
2017-04-29T01:42:51.681Z,1010.59
2017-04-29T01:43:51.708Z,1010.59
2017-04-29T01:44:51.632Z,1010.57
2017-04-29T01:45:51.607Z,1010.56
2017-04-29T01:46:51.585Z,1010.64
2017-04-29T01:47:51.564Z,1010.61
2017-04-29T01:48:51.748Z,1010.58
2017-04-29T01:49:51.510Z,1010.65
2017-04-29T01:50:51.487Z,1010.68
2017-04-29T01:51:51.462Z,1010.69
2017-04-29T01:52:51.437Z,1010.71
2017-04-29T01:53:51.412Z,1010.69
2017-04-29T01:54:51.387Z,1010.65
2017-04-29T01:55:51.365Z,1010.67
2017-04-29T01:56:51.340Z,1010.67
2017-04-29T01:57:51.315Z,1010.69
2017-04-29T01:58:51.292Z,1010.68
2017-04-29T01:59:51.268Z,1010.71
2017-04-29T02:00:51.242Z,1010.75
2017-04-29T02:01:51.223Z,1010.75
2017-04-29T02:02:51.195Z,1010.79
2017-04-29T02:03:51.169Z,1010.78
2017-04-29T02:04:51.144Z,1010.84
2017-04-29T02:05:51.123Z,1010.87
2017-04-29T02:06:51.096Z,1010.86
2017-04-29T02:07:51.073Z,1010.85
2017-04-29T02:08:51.052Z,1010.84
2017-04-29T02:09:51.023Z,1010.82
2017-04-29T02:10:50.997Z,1010.78
2017-04-29T02:11:50.974Z,1010.79
2017-04-29T02:12:50.954Z,1010.79
2017-04-29T02:13:50.928Z,1010.81
2017-04-29T02:14:50.902Z,1010.8
2017-04-29T02:15:50.877Z,1010.75
2017-04-29T02:16:50.884Z,1010.73
2017-04-29T02:17:50.832Z,1010.7
2017-04-29T02:18:50.803Z,1010.76
2017-04-29T02:19:50.779Z,1010.74
2017-04-29T02:20:50.753Z,1010.75
2017-04-29T02:21:50.730Z,1010.79
2017-04-29T02:22:50.701Z,1010.81
2017-04-29T02:23:50.681Z,1010.84
2017-04-29T02:24:50.657Z,1010.87
2017-04-29T02:25:50.633Z,1010.84
2017-04-29T02:26:50.610Z,1010.85
2017-04-29T02:27:50.584Z,1010.84
2017-04-29T02:28:50.561Z,1010.85
2017-04-29T02:29:50.536Z,1010.83
2017-04-29T02:30:50.514Z,1010.87
2017-04-29T02:31:50.487Z,1010.85
2017-04-29T02:32:50.460Z,1010.88
2017-04-29T02:33:50.439Z,1010.87
2017-04-29T02:34:50.416Z,1010.87
2017-04-29T02:35:50.394Z,1010.86
2017-04-29T02:36:50.414Z,1010.93
2017-04-29T02:37:50.340Z,1010.94
2017-04-29T02:38:50.317Z,1010.9
2017-04-29T02:39:50.291Z,1010.91
2017-04-29T02:40:50.267Z,1010.89
2017-04-29T02:41:50.244Z,1010.88
2017-04-29T02:42:50.218Z,1010.87
2017-04-29T02:43:50.193Z,1010.86
2017-04-29T02:44:50.186Z,1010.87
2017-04-29T02:45:50.143Z,1010.82
2017-04-29T02:46:50.120Z,1010.84
2017-04-29T02:47:50.095Z,1010.92
2017-04-29T02:48:50.069Z,1010.84
2017-04-29T02:49:50.052Z,1010.79
2017-04-29T02:50:50.022Z,1010.8
2017-04-29T02:51:49.999Z,1010.79
2017-04-29T02:52:49.975Z,1010.8
2017-04-29T02:53:49.948Z,1010.8
2017-04-29T02:54:49.922Z,1010.8
2017-04-29T02:55:49.902Z,1010.83
2017-04-29T02:56:49.875Z,1010.83
2017-04-29T02:57:49.853Z,1010.81
2017-04-29T02:58:49.827Z,1010.85
2017-04-29T02:59:49.803Z,1010.84
2017-04-29T03:00:49.780Z,1010.88
2017-04-29T03:01:49.754Z,1010.88
2017-04-29T03:02:49.731Z,1010.84
2017-04-29T03:03:49.753Z,1010.88
2017-04-29T03:04:49.679Z,1010.85
2017-04-29T03:05:49.653Z,1010.86
2017-04-29T03:06:49.631Z,1010.89
2017-04-29T03:07:49.607Z,1010.88
2017-04-29T03:08:49.832Z,1010.92
2017-04-29T03:09:49.553Z,1010.88
2017-04-29T03:10:49.532Z,1010.95
2017-04-29T03:11:49.509Z,1010.93
2017-04-29T03:12:49.484Z,1010.92
2017-04-29T03:13:49.458Z,1010.96
2017-04-29T03:14:49.437Z,1010.93
2017-04-29T03:15:49.409Z,1010.95
2017-04-29T03:16:49.385Z,1010.98
2017-04-29T03:17:49.360Z,1011
2017-04-29T03:18:49.335Z,1010.98
2017-04-29T03:19:49.310Z,1010.99
2017-04-29T03:20:49.287Z,1010.99
2017-04-29T03:21:49.263Z,1011.04
2017-04-29T03:22:49.237Z,1011.01
2017-04-29T03:23:49.213Z,1011.02
2017-04-29T03:24:49.187Z,1011.03
2017-04-29T03:25:49.166Z,1011.07
2017-04-29T03:26:49.139Z,1011.03
2017-04-29T03:27:49.114Z,1011.06
2017-04-29T03:28:49.095Z,1011.07
2017-04-29T03:29:49.094Z,1011.08
2017-04-29T03:30:49.040Z,1011.03
2017-04-29T03:31:49.020Z,1011.03
2017-04-29T03:32:48.992Z,1011.04
2017-04-29T03:33:48.965Z,1011.07
2017-04-29T03:34:48.945Z,1011.04
2017-04-29T03:35:48.921Z,1011.04
2017-04-29T03:36:48.891Z,1011.02
2017-04-29T03:37:48.868Z,1011.04
2017-04-29T03:38:48.842Z,1011.05
2017-04-29T03:39:49.070Z,1011.05
2017-04-29T03:40:48.793Z,1011.1
2017-04-29T03:41:48.768Z,1011.08
2017-04-29T03:42:48.743Z,1011.12
2017-04-29T03:43:48.722Z,1011.11
2017-04-29T03:44:48.695Z,1011.13
2017-04-29T03:45:48.669Z,1011.12
2017-04-29T03:46:48.645Z,1011.14
2017-04-29T03:47:48.624Z,1011.12
2017-04-29T03:48:48.646Z,1011.13
2017-04-29T03:49:48.569Z,1011.14
2017-04-29T03:50:48.544Z,1011.12
2017-04-29T03:51:48.522Z,1011.08
2017-04-29T03:52:48.501Z,1011.13
2017-04-29T03:53:48.472Z,1011.08
2017-04-29T03:54:48.449Z,1011.16
2017-04-29T03:55:48.423Z,1011.07
2017-04-29T03:56:48.398Z,1011.09
2017-04-29T03:57:48.375Z,1011.06
2017-04-29T03:58:48.354Z,1011.03
2017-04-29T03:59:48.324Z,1011.07
2017-04-29T04:00:48.299Z,1011.05
2017-04-29T04:01:48.277Z,1011.03
2017-04-29T04:02:48.251Z,1011.09
2017-04-29T04:03:48.228Z,1011.11
2017-04-29T04:04:48.205Z,1011.13
2017-04-29T04:05:48.179Z,1011.19
2017-04-29T04:06:48.154Z,1011.22
2017-04-29T04:07:48.128Z,1011.18
2017-04-29T04:08:48.103Z,1011.23
2017-04-29T04:09:48.080Z,1011.19
2017-04-29T04:10:48.059Z,1011.24
2017-04-29T04:11:48.029Z,1011.14
2017-04-29T04:12:48.005Z,1011.13
2017-04-29T04:13:47.980Z,1011.18
2017-04-29T04:14:47.956Z,1011.14
2017-04-29T04:15:47.933Z,1011.13
2017-04-29T04:16:47.907Z,1011.09
2017-04-29T04:17:47.885Z,1011.16
2017-04-29T04:18:47.859Z,1011.16
2017-04-29T04:19:47.834Z,1011.11
2017-04-29T04:20:47.810Z,1011.12
2017-04-29T04:21:47.787Z,1011.08
2017-04-29T04:22:47.766Z,1011.12
2017-04-29T04:23:47.737Z,1011.07
2017-04-29T04:24:47.712Z,1011.1
2017-04-29T04:25:47.684Z,1011.11
2017-04-29T04:26:47.663Z,1011.14
2017-04-29T04:27:47.640Z,1011.09
2017-04-29T04:28:47.616Z,1011.14
2017-04-29T04:29:47.590Z,1011.14
2017-04-29T04:30:47.566Z,1011.16
2017-04-29T04:31:47.546Z,1011.17
2017-04-29T04:32:47.518Z,1011.18
2017-04-29T04:33:47.493Z,1011.24
2017-04-29T04:34:47.468Z,1011.18
2017-04-29T04:35:47.447Z,1011.18
2017-04-29T04:36:47.419Z,1011.13
2017-04-29T04:37:47.396Z,1011.12
2017-04-29T04:38:47.368Z,1011.15
2017-04-29T04:39:47.346Z,1011.16
2017-04-29T04:40:47.320Z,1011.14
2017-04-29T04:41:47.297Z,1011.08
2017-04-29T04:42:47.276Z,1011.14
2017-04-29T04:43:47.252Z,1011.13
2017-04-29T04:44:47.221Z,1011.13
2017-04-29T04:45:47.197Z,1011.15
2017-04-29T04:46:47.173Z,1011.18
2017-04-29T04:47:47.148Z,1011.21
2017-04-29T04:48:47.125Z,1011.13
2017-04-29T04:49:47.100Z,1011.16
2017-04-29T04:50:47.076Z,1011.13
2017-04-29T04:51:47.051Z,1011.19
2017-04-29T04:52:47.023Z,1011.16
2017-04-29T04:53:47.015Z,1011.19
2017-04-29T04:54:46.980Z,1011.2
2017-04-29T04:55:46.953Z,1011.25
2017-04-29T04:56:46.929Z,1011.24
2017-04-29T04:57:46.958Z,1011.26
2017-04-29T04:58:46.879Z,1011.22
2017-04-29T04:59:46.855Z,1011.27
2017-04-29T05:00:46.832Z,1011.26
2017-04-29T05:01:46.807Z,1011.28
2017-04-29T05:02:46.784Z,1011.29
2017-04-29T05:03:46.759Z,1011.28
2017-04-29T05:04:46.733Z,1011.31
2017-04-29T05:05:46.712Z,1011.35
2017-04-29T05:06:46.684Z,1011.34
2017-04-29T05:07:46.663Z,1011.32
2017-04-29T05:08:46.640Z,1011.34
2017-04-29T05:09:46.614Z,1011.33
2017-04-29T05:10:46.588Z,1011.32
2017-04-29T05:11:46.565Z,1011.35
2017-04-29T05:12:46.541Z,1011.4
2017-04-29T05:13:46.517Z,1011.38
2017-04-29T05:14:46.493Z,1011.39
2017-04-29T05:15:46.468Z,1011.4
2017-04-29T05:16:46.443Z,1011.4
2017-04-29T05:17:46.419Z,1011.42
2017-04-29T05:18:46.396Z,1011.38
2017-04-29T05:19:46.373Z,1011.43
2017-04-29T05:20:46.348Z,1011.42
2017-04-29T05:21:46.323Z,1011.4
2017-04-29T05:22:46.300Z,1011.42
2017-04-29T05:23:46.277Z,1011.43
2017-04-29T05:24:46.269Z,1011.39
2017-04-29T05:25:46.229Z,1011.4
2017-04-29T05:26:46.202Z,1011.39
2017-04-29T05:27:46.179Z,1011.38
2017-04-29T05:28:46.155Z,1011.39
2017-04-29T05:29:46.131Z,1011.34
2017-04-29T05:30:46.108Z,1011.36
2017-04-29T05:31:46.082Z,1011.37
2017-04-29T05:32:46.057Z,1011.38
2017-04-29T05:33:46.034Z,1011.39
2017-04-29T05:34:46.013Z,1011.37
2017-04-29T05:35:45.986Z,1011.44
2017-04-29T05:36:45.965Z,1011.4
2017-04-29T05:37:45.939Z,1011.4
2017-04-29T05:38:45.914Z,1011.43
2017-04-29T05:39:45.890Z,1011.42
2017-04-29T05:40:46.116Z,1011.45
2017-04-29T05:41:45.844Z,1011.45
2017-04-29T05:42:45.819Z,1011.46
2017-04-29T05:43:45.796Z,1011.48
2017-04-29T05:44:45.772Z,1011.49
2017-04-29T05:45:45.755Z,1011.47
2017-04-29T05:46:45.725Z,1011.49
2017-04-29T05:47:45.701Z,1011.49
2017-04-29T05:48:45.681Z,1011.47
2017-04-29T05:49:45.651Z,1011.44
2017-04-29T05:50:45.630Z,1011.48
2017-04-29T05:51:45.606Z,1011.5
2017-04-29T05:52:45.633Z,1011.46
2017-04-29T05:53:45.557Z,1011.42
2017-04-29T05:54:45.534Z,1011.47
2017-04-29T05:55:45.509Z,1011.42
2017-04-29T05:56:45.488Z,1011.47
2017-04-29T05:57:45.461Z,1011.45
2017-04-29T05:58:45.439Z,1011.47
2017-04-29T05:59:45.416Z,1011.48
2017-04-29T06:00:45.393Z,1011.46
2017-04-29T06:01:45.370Z,1011.48
2017-04-29T06:02:45.346Z,1011.45
2017-04-29T06:03:45.323Z,1011.43
2017-04-29T06:04:45.301Z,1011.43
2017-04-29T06:05:45.279Z,1011.44
2017-04-29T06:06:45.254Z,1011.46
2017-04-29T06:07:45.230Z,1011.44
2017-04-29T06:08:45.209Z,1011.45
2017-04-29T06:09:45.184Z,1011.48
2017-04-29T06:10:45.159Z,1011.46
2017-04-29T06:11:45.149Z,1011.45
2017-04-29T06:12:45.114Z,1011.5
2017-04-29T06:13:45.091Z,1011.53
2017-04-29T06:14:45.069Z,1011.54
2017-04-29T06:15:45.044Z,1011.55
2017-04-29T06:16:45.023Z,1011.56
2017-04-29T06:17:45.000Z,1011.58
2017-04-29T06:18:44.975Z,1011.59
2017-04-29T06:19:44.953Z,1011.57
2017-04-29T06:20:44.928Z,1011.58
2017-04-29T06:21:44.909Z,1011.58
2017-04-29T06:22:44.883Z,1011.64
2017-04-29T06:23:44.860Z,1011.59
2017-04-29T06:24:44.836Z,1011.61
2017-04-29T06:25:44.817Z,1011.67
2017-04-29T06:26:44.791Z,1011.65
2017-04-29T06:27:44.768Z,1011.66
2017-04-29T06:28:44.745Z,1011.66
2017-04-29T06:29:44.726Z,1011.68
2017-04-29T06:30:44.701Z,1011.7
2017-04-29T06:31:44.681Z,1011.72
2017-04-29T06:32:44.660Z,1011.68
2017-04-29T06:33:44.632Z,1011.71
2017-04-29T06:34:44.616Z,1011.7
2017-04-29T06:35:44.588Z,1011.74
2017-04-29T06:36:44.566Z,1011.73
2017-04-29T06:37:44.541Z,1011.73
2017-04-29T06:38:44.519Z,1011.74
2017-04-29T06:39:44.498Z,1011.74
2017-04-29T06:40:44.476Z,1011.74
2017-04-29T06:41:44.451Z,1011.78
2017-04-29T06:42:44.429Z,1011.81
2017-04-29T06:43:44.408Z,1011.82
2017-04-29T06:44:44.384Z,1011.77
2017-04-29T06:45:44.363Z,1011.76
2017-04-29T06:46:44.341Z,1011.79
2017-04-29T06:47:44.318Z,1011.82
2017-04-29T06:48:44.293Z,1011.86
2017-04-29T06:49:44.273Z,1011.81
2017-04-29T06:50:44.253Z,1011.84
2017-04-29T06:51:44.227Z,1011.84
2017-04-29T06:52:44.205Z,1011.85
2017-04-29T06:53:44.183Z,1011.81
2017-04-29T06:54:44.169Z,1011.89
2017-04-29T06:55:44.137Z,1011.89
2017-04-29T06:56:44.118Z,1011.89
2017-04-29T06:57:44.094Z,1011.9
2017-04-29T06:58:44.071Z,1011.87
2017-04-29T06:59:44.049Z,1011.88
2017-04-29T07:00:44.024Z,1011.87
2017-04-29T07:01:44.009Z,1011.9
2017-04-29T07:02:43.987Z,1011.92
2017-04-29T07:03:43.959Z,1011.88
2017-04-29T07:04:43.939Z,1011.93
2017-04-29T07:05:43.920Z,1011.95
2017-04-29T07:06:43.895Z,1011.91
2017-04-29T07:07:43.874Z,1011.95
2017-04-29T07:08:43.848Z,1011.98
2017-04-29T07:09:43.830Z,1011.94
2017-04-29T07:10:43.810Z,1011.94
2017-04-29T07:11:43.784Z,1012
2017-04-29T07:12:43.764Z,1011.97
2017-04-29T07:13:43.745Z,1011.96
2017-04-29T07:14:43.723Z,1011.97
2017-04-29T07:15:43.703Z,1011.94
2017-04-29T07:16:43.686Z,1012
2017-04-29T07:17:43.660Z,1011.98
2017-04-29T07:18:43.639Z,1011.95
2017-04-29T07:19:43.621Z,1012.01
2017-04-29T07:20:43.598Z,1012.01
2017-04-29T07:21:43.578Z,1011.97
2017-04-29T07:22:43.559Z,1011.97
2017-04-29T07:23:43.543Z,1012.03
2017-04-29T07:24:43.519Z,1012.05
2017-04-29T07:25:43.499Z,1012.04
2017-04-29T07:26:43.480Z,1012.04
2017-04-29T07:27:43.467Z,1012.08
2017-04-29T07:28:43.442Z,1012.05
2017-04-29T07:29:43.421Z,1012.05
2017-04-29T07:30:43.402Z,1012
2017-04-29T07:31:43.385Z,1012.06
2017-04-29T07:32:43.370Z,1012.06
2017-04-29T07:33:43.345Z,1012.09
2017-04-29T07:34:43.324Z,1012.07
2017-04-29T07:35:43.307Z,1012.06
2017-04-29T07:36:43.285Z,1012
2017-04-29T07:37:43.273Z,1011.94
2017-04-29T07:38:43.248Z,1012.02
2017-04-29T07:39:43.224Z,1011.99
2017-04-29T07:40:43.214Z,1012.03
2017-04-29T07:41:43.188Z,1012.07
2017-04-29T07:42:43.167Z,1012.05
2017-04-29T07:43:43.144Z,1012.02
2017-04-29T07:44:43.126Z,1012.05
2017-04-29T07:45:43.109Z,1012.07
2017-04-29T07:46:43.084Z,1012.11
2017-04-29T07:47:43.063Z,1012.09
2017-04-29T07:48:43.048Z,1012.06
2017-04-29T07:49:43.077Z,1012.05
2017-04-29T07:50:43.003Z,1012.03
2017-04-29T07:51:42.980Z,1011.98
2017-04-29T07:52:42.961Z,1011.99
2017-04-29T07:53:42.939Z,1012.08
2017-04-29T07:54:42.921Z,1011.98
2017-04-29T07:55:42.899Z,1012.02
2017-04-29T07:56:42.880Z,1012.02
2017-04-29T07:57:42.866Z,1012.02
2017-04-29T07:58:42.840Z,1011.97
2017-04-29T07:59:42.828Z,1012
2017-04-29T08:00:42.801Z,1011.98
2017-04-29T08:01:42.779Z,1012.04
2017-04-29T08:02:42.760Z,1012.03
2017-04-29T08:03:42.742Z,1012.05
2017-04-29T08:04:42.730Z,1012
2017-04-29T08:05:42.705Z,1011.97
2017-04-29T08:06:42.684Z,1012
2017-04-29T08:07:42.665Z,1012.04
2017-04-29T08:08:42.646Z,1012.04
2017-04-29T08:09:42.624Z,1012.07
2017-04-29T08:10:42.609Z,1012.06
2017-04-29T08:11:42.587Z,1012.04
2017-04-29T08:12:42.569Z,1012.07
2017-04-29T08:13:42.543Z,1012.03
2017-04-29T08:14:42.537Z,1012.04
2017-04-29T08:15:42.511Z,1012.02
2017-04-29T08:16:42.484Z,1012.02
2017-04-29T08:17:42.471Z,1011.94
2017-04-29T08:18:42.455Z,1012.03
2017-04-29T08:19:42.432Z,1012.04
2017-04-29T08:20:42.419Z,1012.03
2017-04-29T08:21:42.398Z,1012.01
2017-04-29T08:22:42.380Z,1012.05
2017-04-29T08:23:42.360Z,1012.01
2017-04-29T08:24:42.344Z,1012.13
2017-04-29T08:25:42.325Z,1012.1
2017-04-29T08:26:42.306Z,1012.11
2017-04-29T08:27:42.291Z,1012.08
2017-04-29T08:28:42.266Z,1012.1
2017-04-29T08:29:42.249Z,1012.12
2017-04-29T08:30:42.230Z,1012.15
2017-04-29T08:31:42.212Z,1012.15
2017-04-29T08:32:42.189Z,1012.13
2017-04-29T08:33:42.175Z,1012.21
2017-04-29T08:34:42.154Z,1012.23
2017-04-29T08:35:42.128Z,1012.22
2017-04-29T08:36:42.109Z,1012.24
2017-04-29T08:37:42.087Z,1012.23
2017-04-29T08:38:42.070Z,1012.24
2017-04-29T08:39:42.044Z,1012.27
2017-04-29T08:40:42.024Z,1012.33
2017-04-29T08:41:42.004Z,1012.32
2017-04-29T08:42:41.984Z,1012.35
2017-04-29T08:43:41.963Z,1012.4
2017-04-29T08:44:41.944Z,1012.42
2017-04-29T08:45:41.919Z,1012.39
2017-04-29T08:46:41.897Z,1012.42
2017-04-29T08:47:41.877Z,1012.38
2017-04-29T08:48:41.855Z,1012.41
2017-04-29T08:49:41.833Z,1012.43
2017-04-29T08:50:41.812Z,1012.43
2017-04-29T08:51:41.793Z,1012.42
2017-04-29T08:52:41.767Z,1012.41
2017-04-29T08:53:41.747Z,1012.41
2017-04-29T08:54:41.729Z,1012.48
2017-04-29T08:55:41.704Z,1012.52
2017-04-29T08:56:41.714Z,1012.53
2017-04-29T08:57:41.662Z,1012.48
2017-04-29T08:58:41.639Z,1012.52
2017-04-29T08:59:41.618Z,1012.55
2017-04-29T09:00:41.596Z,1012.55
2017-04-29T09:01:41.575Z,1012.51
2017-04-29T09:02:41.553Z,1012.53
2017-04-29T09:03:41.531Z,1012.57
2017-04-29T09:04:41.509Z,1012.54
2017-04-29T09:05:41.488Z,1012.58
2017-04-29T09:06:41.469Z,1012.54
2017-04-29T09:07:41.443Z,1012.54
2017-04-29T09:08:41.421Z,1012.55
2017-04-29T09:09:41.403Z,1012.63
2017-04-29T09:10:41.382Z,1012.63
2017-04-29T09:11:41.357Z,1012.6
2017-04-29T09:12:41.334Z,1012.63
2017-04-29T09:13:41.313Z,1012.6
2017-04-29T09:14:41.289Z,1012.58
2017-04-29T09:15:41.267Z,1012.56
2017-04-29T09:16:41.247Z,1012.59
2017-04-29T09:17:41.231Z,1012.6
2017-04-29T09:18:41.202Z,1012.57
2017-04-29T09:19:41.179Z,1012.6
2017-04-29T09:20:41.212Z,1012.57
2017-04-29T09:21:41.136Z,1012.6
2017-04-29T09:22:41.114Z,1012.63
2017-04-29T09:23:41.093Z,1012.62
2017-04-29T09:24:41.069Z,1012.66
2017-04-29T09:25:41.051Z,1012.59
2017-04-29T09:26:41.032Z,1012.62
2017-04-29T09:27:41.006Z,1012.66
2017-04-29T09:28:40.982Z,1012.65
2017-04-29T09:29:40.961Z,1012.61
2017-04-29T09:30:40.938Z,1012.62
2017-04-29T09:31:40.917Z,1012.62
2017-04-29T09:32:40.898Z,1012.66
2017-04-29T09:33:40.878Z,1012.62
2017-04-29T09:34:40.861Z,1012.65
2017-04-29T09:35:40.836Z,1012.58
2017-04-29T09:36:40.822Z,1012.62
2017-04-29T09:37:40.798Z,1012.62
2017-04-29T09:38:40.777Z,1012.61
2017-04-29T09:39:40.762Z,1012.61
2017-04-29T09:40:40.742Z,1012.57
2017-04-29T09:41:40.729Z,1012.62
2017-04-29T09:42:40.703Z,1012.57
2017-04-29T09:43:40.688Z,1012.63
2017-04-29T09:44:40.670Z,1012.62
2017-04-29T09:45:40.653Z,1012.58
2017-04-29T09:46:40.642Z,1012.63
2017-04-29T09:47:40.621Z,1012.6
2017-04-29T09:48:40.606Z,1012.6
2017-04-29T09:49:40.589Z,1012.53
2017-04-29T09:50:40.573Z,1012.56
2017-04-29T09:51:40.557Z,1012.54
2017-04-29T09:52:40.541Z,1012.54
2017-04-29T09:53:40.524Z,1012.52
2017-04-29T09:54:40.516Z,1012.5
2017-04-29T09:55:40.494Z,1012.47
2017-04-29T09:56:40.480Z,1012.52
2017-04-29T09:57:40.467Z,1012.5
2017-04-29T09:58:40.454Z,1012.43
2017-04-29T09:59:40.437Z,1012.43
2017-04-29T10:00:40.421Z,1012.4
2017-04-29T10:01:40.408Z,1012.44
2017-04-29T10:02:40.392Z,1012.48
2017-04-29T10:03:40.376Z,1012.5
2017-04-29T10:04:40.365Z,1012.41
2017-04-29T10:05:40.344Z,1012.46
2017-04-29T10:06:40.328Z,1012.46
2017-04-29T10:07:40.310Z,1012.45
2017-04-29T10:08:40.292Z,1012.46
2017-04-29T10:09:40.274Z,1012.43
2017-04-29T10:10:40.255Z,1012.45
2017-04-29T10:11:40.238Z,1012.44
2017-04-29T10:12:40.219Z,1012.42
2017-04-29T10:13:40.200Z,1012.46
2017-04-29T10:14:40.188Z,1012.45
2017-04-29T10:15:40.164Z,1012.47
2017-04-29T10:16:40.142Z,1012.49
2017-04-29T10:17:40.124Z,1012.5
2017-04-29T10:18:40.104Z,1012.46
2017-04-29T10:19:40.080Z,1012.54
2017-04-29T10:20:40.061Z,1012.49
2017-04-29T10:21:40.038Z,1012.51
2017-04-29T10:22:40.019Z,1012.51
2017-04-29T10:23:40.000Z,1012.6
2017-04-29T10:24:39.978Z,1012.5
2017-04-29T10:25:39.958Z,1012.57
2017-04-29T10:26:39.938Z,1012.55
2017-04-29T10:27:39.915Z,1012.51
2017-04-29T10:28:39.898Z,1012.47
2017-04-29T10:29:39.927Z,1012.39
2017-04-29T10:30:39.863Z,1012.53
2017-04-29T10:31:39.837Z,1012.5
2017-04-29T10:32:39.816Z,1012.48
2017-04-29T10:33:39.797Z,1012.51
2017-04-29T10:34:39.777Z,1012.49
2017-04-29T10:35:39.757Z,1012.53
2017-04-29T10:36:39.760Z,1012.45
2017-04-29T10:37:39.721Z,1012.45
2017-04-29T10:38:39.712Z,1012.43
2017-04-29T10:39:39.682Z,1012.45
2017-04-29T10:40:39.665Z,1012.49
2017-04-29T10:41:39.643Z,1012.45
2017-04-29T10:42:39.623Z,1012.42
2017-04-29T10:43:39.601Z,1012.41
2017-04-29T10:44:39.587Z,1012.4
2017-04-29T10:45:39.566Z,1012.35
2017-04-29T10:46:39.543Z,1012.36
2017-04-29T10:47:39.524Z,1012.35
2017-04-29T10:48:39.503Z,1012.32
2017-04-29T10:49:39.484Z,1012.35
2017-04-29T10:50:39.465Z,1012.34
2017-04-29T10:51:39.446Z,1012.33
2017-04-29T10:52:39.425Z,1012.31
2017-04-29T10:53:39.453Z,1012.33
2017-04-29T10:54:39.382Z,1012.31
2017-04-29T10:55:39.363Z,1012.33
2017-04-29T10:56:39.343Z,1012.27
2017-04-29T10:57:39.326Z,1012.31
2017-04-29T10:58:39.301Z,1012.35
2017-04-29T10:59:39.284Z,1012.32
2017-04-29T11:00:39.297Z,1012.27
2017-04-29T11:01:39.243Z,1012.26
2017-04-29T11:02:39.273Z,1012.33
2017-04-29T11:03:39.203Z,1012.27
2017-04-29T11:04:39.182Z,1012.27
2017-04-29T11:05:39.163Z,1012.28
2017-04-29T11:06:39.143Z,1012.31
2017-04-29T11:07:39.125Z,1012.29
2017-04-29T11:08:39.101Z,1012.31
2017-04-29T11:09:39.087Z,1012.3
2017-04-29T11:10:39.062Z,1012.31
2017-04-29T11:11:39.041Z,1012.28
2017-04-29T11:12:39.026Z,1012.28
2017-04-29T11:13:39.001Z,1012.25
2017-04-29T11:14:38.981Z,1012.27
2017-04-29T11:15:38.960Z,1012.28
2017-04-29T11:16:38.939Z,1012.28
2017-04-29T11:17:38.921Z,1012.33
2017-04-29T11:18:38.898Z,1012.25
2017-04-29T11:19:38.879Z,1012.21
2017-04-29T11:20:38.857Z,1012.23
2017-04-29T11:21:38.845Z,1012.28
2017-04-29T11:22:38.818Z,1012.21
2017-04-29T11:23:38.797Z,1012.28
2017-04-29T11:24:38.779Z,1012.27
2017-04-29T11:25:38.756Z,1012.31
2017-04-29T11:26:38.735Z,1012.31
2017-04-29T11:27:38.763Z,1012.27
2017-04-29T11:28:38.695Z,1012.23
2017-04-29T11:29:38.673Z,1012.27
2017-04-29T11:30:38.651Z,1012.29
2017-04-29T11:31:38.633Z,1012.24
2017-04-29T11:32:38.611Z,1012.22
2017-04-29T11:33:38.590Z,1012.22
2017-04-29T11:34:38.575Z,1012.25
2017-04-29T11:35:38.550Z,1012.2
2017-04-29T11:36:38.527Z,1012.23
2017-04-29T11:37:38.510Z,1012.19
2017-04-29T11:38:38.489Z,1012.19
2017-04-29T11:39:38.467Z,1012.17
2017-04-29T11:40:38.446Z,1012.16
2017-04-29T11:41:38.431Z,1012.14
2017-04-29T11:42:38.410Z,1012.17
2017-04-29T11:43:38.390Z,1012.16
2017-04-29T11:44:38.363Z,1012.19
2017-04-29T11:45:38.344Z,1012.16
2017-04-29T11:46:38.325Z,1012.19
2017-04-29T11:47:38.304Z,1012.16
2017-04-29T11:48:38.281Z,1012.08
2017-04-29T11:49:38.263Z,1012.16
2017-04-29T11:50:38.246Z,1012.11
2017-04-29T11:51:38.219Z,1012.1
2017-04-29T11:52:38.202Z,1012.17
2017-04-29T11:53:38.181Z,1012.17
2017-04-29T11:54:38.210Z,1012.18
2017-04-29T11:55:38.144Z,1012.15
2017-04-29T11:56:38.119Z,1012.16
2017-04-29T11:57:38.102Z,1012.15
2017-04-29T11:58:38.082Z,1012.14
2017-04-29T11:59:38.058Z,1012.18
2017-04-29T12:00:38.039Z,1012.17
2017-04-29T12:01:38.019Z,1012.22
2017-04-29T12:02:37.998Z,1012.22
2017-04-29T12:03:37.978Z,1012.25
2017-04-29T12:04:37.954Z,1012.23
2017-04-29T12:05:37.935Z,1012.24
2017-04-29T12:06:37.914Z,1012.24
2017-04-29T12:07:37.892Z,1012.22
2017-04-29T12:08:37.873Z,1012.22